createdAt,value
2018-08-06T00:01:16.988Z,1.10
2018-08-06T00:03:47.677Z,1.00
2018-08-06T00:06:18.362Z,1.07
2018-08-06T00:08:49.063Z,1.07
2018-08-06T00:11:19.767Z,1.13
2018-08-06T00:13:50.629Z,1.20
2018-08-06T00:16:21.371Z,1.10
2018-08-06T00:18:52.403Z,1.10
2018-08-06T00:21:23.131Z,1.07
2018-08-06T00:23:53.861Z,1.27
2018-08-06T00:26:24.594Z,1.10
2018-08-06T00:28:55.275Z,1.10
2018-08-06T00:31:26.064Z,1.10
2018-08-06T00:33:56.747Z,1.20
2018-08-06T00:36:27.435Z,1.20
2018-08-06T00:38:58.134Z,1.10
2018-08-06T00:41:28.937Z,1.27
2018-08-06T00:43:59.625Z,1.33
2018-08-06T00:46:30.309Z,1.10
2018-08-06T00:49:01.036Z,1.07
2018-08-06T00:51:31.724Z,1.30
2018-08-06T00:54:02.546Z,1.20
2018-08-06T00:56:33.202Z,1.00
2018-08-06T00:59:03.908Z,1.40
2018-08-06T01:01:34.561Z,1.57
2018-08-06T01:04:05.329Z,1.30
2018-08-06T01:06:35.988Z,1.10
2018-08-06T01:09:10.155Z,1.20
2018-08-06T01:11:40.800Z,1.37
2018-08-06T01:14:11.539Z,1.50
2018-08-06T01:16:42.452Z,1.13
2018-08-06T01:19:13.170Z,1.13
2018-08-06T01:21:43.895Z,0.93
2018-08-06T01:24:14.651Z,1.30
2018-08-06T01:26:45.315Z,1.13
2018-08-06T01:29:15.982Z,1.57
2018-08-06T01:31:46.672Z,1.20
2018-08-06T01:34:17.380Z,1.03
2018-08-06T01:36:47.718Z,1.47
2018-08-06T01:39:18.291Z,1.23
2018-08-06T01:41:49.020Z,1.53
2018-08-06T01:44:19.714Z,1.30
2018-08-06T01:46:50.414Z,1.30
2018-08-06T01:49:21.065Z,1.40
2018-08-06T01:51:51.699Z,1.23
2018-08-06T01:54:22.410Z,1.23
2018-08-06T01:56:53.108Z,1.37
2018-08-06T01:59:23.765Z,1.30
2018-08-06T02:01:54.382Z,1.20
2018-08-06T02:04:25.068Z,1.20
2018-08-06T02:06:55.724Z,1.40
2018-08-06T02:09:26.392Z,1.40
2018-08-06T02:11:57.045Z,1.40
2018-08-06T02:14:27.795Z,1.30
2018-08-06T02:16:58.467Z,1.33
2018-08-06T02:19:29.115Z,1.50
2018-08-06T02:21:59.862Z,1.30
2018-08-06T02:24:30.667Z,1.27
2018-08-06T02:27:01.342Z,1.40
2018-08-06T02:29:32.067Z,1.87
2018-08-06T02:32:02.769Z,1.40
2018-08-06T02:34:33.446Z,1.67
2018-08-06T02:37:04.257Z,1.60
2018-08-06T02:39:34.937Z,1.70
2018-08-06T02:42:05.792Z,1.70
2018-08-06T02:44:36.477Z,1.70
2018-08-06T02:47:07.639Z,1.40
2018-08-06T02:49:38.359Z,1.43
2018-08-06T02:52:09.108Z,1.83
2018-08-06T02:54:39.786Z,1.80
2018-08-06T02:57:10.465Z,1.70
2018-08-06T02:59:41.203Z,1.73
2018-08-06T03:02:11.942Z,2.00
2018-08-06T03:04:42.657Z,1.40
2018-08-06T03:07:13.446Z,1.80
2018-08-06T03:09:44.321Z,1.80
2018-08-06T03:12:15.084Z,1.80
2018-08-06T03:14:45.763Z,1.67
2018-08-06T03:17:16.441Z,2.00
2018-08-06T03:19:47.107Z,1.67
2018-08-06T03:22:17.831Z,1.73
2018-08-06T03:24:48.507Z,1.60
2018-08-06T03:27:19.223Z,1.70
2018-08-06T03:29:49.936Z,1.60
2018-08-06T03:32:20.855Z,1.67
2018-08-06T03:34:51.525Z,1.80
2018-08-06T03:37:22.251Z,2.10
2018-08-06T03:39:52.733Z,2.07
2018-08-06T03:42:23.472Z,2.23
2018-08-06T03:44:54.180Z,1.93
2018-08-06T03:47:24.906Z,2.03
2018-08-06T03:49:55.543Z,2.20
2018-08-06T03:52:26.233Z,1.90
2018-08-06T03:54:56.950Z,1.93
2018-08-06T03:57:27.621Z,1.87
2018-08-06T03:59:58.334Z,2.13
2018-08-06T04:02:29.038Z,1.43
2018-08-06T04:04:59.689Z,2.20
2018-08-06T04:07:30.412Z,2.10
2018-08-06T04:10:01.096Z,1.80
2018-08-06T04:12:31.897Z,2.13
2018-08-06T04:15:02.613Z,2.53
2018-08-06T04:17:33.320Z,2.37
2018-08-06T04:20:04.065Z,2.03
2018-08-06T04:22:34.786Z,2.27
2018-08-06T04:25:05.774Z,2.47
2018-08-06T04:27:36.809Z,2.30
2018-08-06T04:30:11.603Z,2.40
2018-08-06T04:32:42.498Z,2.17
2018-08-06T04:35:13.256Z,1.97
2018-08-06T04:37:44.707Z,2.10
2018-08-06T04:40:15.526Z,2.20
2018-08-06T04:42:46.203Z,2.23
2018-08-06T04:45:16.948Z,2.07
2018-08-06T04:47:47.654Z,1.90
2018-08-06T04:50:18.443Z,2.10
2018-08-06T04:52:49.142Z,2.10
2018-08-06T04:55:19.903Z,2.23
2018-08-06T04:57:50.653Z,2.60
2018-08-06T05:00:21.399Z,2.10
2018-08-06T05:02:52.149Z,2.40
2018-08-06T05:05:22.870Z,2.20
2018-08-06T05:07:54.088Z,2.40
2018-08-06T05:10:24.863Z,2.33
2018-08-06T05:12:55.544Z,2.53
2018-08-06T05:15:26.249Z,2.60
2018-08-06T05:17:56.989Z,3.00
2018-08-06T05:20:27.677Z,2.67
2018-08-06T05:22:58.424Z,2.70
2018-08-06T05:25:28.875Z,2.50
2018-08-06T05:28:00.594Z,2.80
2018-08-06T05:30:31.693Z,2.93
2018-08-06T05:33:02.662Z,2.93
2018-08-06T05:35:33.414Z,2.37
2018-08-06T05:38:04.867Z,2.40
2018-08-06T05:40:35.680Z,2.67
2018-08-06T05:43:06.605Z,2.53
2018-08-06T05:45:37.647Z,3.00
2018-08-06T05:48:08.499Z,2.60
2018-08-06T05:50:39.319Z,3.10
2018-08-06T05:53:10.049Z,3.03
2018-08-06T05:55:40.803Z,2.83
2018-08-06T05:58:11.668Z,2.73
2018-08-06T06:00:42.391Z,2.73
2018-08-06T06:03:13.236Z,2.50
2018-08-06T06:05:44.050Z,2.73
2018-08-06T06:08:14.837Z,3.03
2018-08-06T06:10:45.676Z,2.33
2018-08-06T06:13:16.465Z,2.70
2018-08-06T06:15:47.237Z,2.00
2018-08-06T06:18:18.057Z,2.10
2018-08-06T06:20:49.009Z,2.60
2018-08-06T06:29:29.008Z,2.00
2018-08-06T06:31:59.961Z,1.90
2018-08-06T06:34:30.783Z,1.73
2018-08-06T06:37:01.519Z,1.70
2018-08-06T06:39:32.392Z,2.20
2018-08-06T06:42:03.490Z,1.90
2018-08-06T06:44:34.369Z,1.60
2018-08-06T06:47:05.301Z,2.00
2018-08-06T06:49:36.140Z,2.10
2018-08-06T06:52:07.126Z,1.97
2018-08-06T06:54:37.883Z,1.77
2018-08-06T06:57:08.758Z,1.83
2018-08-06T06:59:39.487Z,1.70
2018-08-06T07:02:10.449Z,1.70
2018-08-06T07:04:41.372Z,2.00
2018-08-06T07:07:12.272Z,1.63
2018-08-06T07:09:43.079Z,1.83
2018-08-06T07:12:14.091Z,2.00
2018-08-06T07:14:44.979Z,1.60
2018-08-06T07:17:15.463Z,2.00
2018-08-06T07:19:46.238Z,1.80
2018-08-06T07:22:16.973Z,1.80
2018-08-06T07:24:47.800Z,1.37
2018-08-06T07:27:18.483Z,1.90
2018-08-06T07:29:49.162Z,1.80
2018-08-06T07:32:19.899Z,1.50
2018-08-06T07:34:50.584Z,1.60
2018-08-06T07:37:21.265Z,1.50
2018-08-06T07:39:51.947Z,1.37
2018-08-06T07:42:22.656Z,1.40
2018-08-06T07:44:53.377Z,1.77
2018-08-06T07:47:24.091Z,1.30
2018-08-06T07:49:54.839Z,2.37
2018-08-06T07:52:25.594Z,1.60
2018-08-06T07:54:56.295Z,1.40
2018-08-06T07:57:26.982Z,1.50
2018-08-06T07:59:57.643Z,1.40
2018-08-06T08:02:28.385Z,1.40
2018-08-06T08:04:59.147Z,1.80
2018-08-06T08:07:29.983Z,1.50
2018-08-06T08:10:00.659Z,1.60
2018-08-06T08:12:31.456Z,1.23
2018-08-06T08:15:02.155Z,1.40
2018-08-06T08:17:32.872Z,1.27
2018-08-06T08:20:03.783Z,1.20
2018-08-06T08:22:34.631Z,1.30
2018-08-06T08:25:07.497Z,1.20
2018-08-06T08:27:38.245Z,1.37
2018-08-06T08:30:11.044Z,1.10
2018-08-06T08:32:41.712Z,1.40
2018-08-06T08:35:13.784Z,1.33
2018-08-06T08:37:44.627Z,1.20
2018-08-06T08:40:18.124Z,1.00
2018-08-06T08:42:48.845Z,1.23
2018-08-06T08:45:19.652Z,1.47
2018-08-06T08:47:50.418Z,1.20
2018-08-06T08:50:21.496Z,1.20
2018-08-06T08:52:52.391Z,1.10
2018-08-06T08:55:23.140Z,1.10
2018-08-06T08:57:53.890Z,1.60
2018-08-06T09:00:24.601Z,1.53
2018-08-06T09:02:55.307Z,1.60
2018-08-06T09:05:26.028Z,1.40
2018-08-06T09:07:56.713Z,1.10
2018-08-06T09:10:27.425Z,1.20
2018-08-06T09:12:58.138Z,1.20
2018-08-06T09:15:29.089Z,1.57
2018-08-06T09:17:59.842Z,1.47
2018-08-06T09:20:30.601Z,1.27
2018-08-06T09:23:32.354Z,1.07
2018-08-06T09:26:03.083Z,1.10
2018-08-06T09:28:33.819Z,1.50
2018-08-06T09:31:04.660Z,1.50
2018-08-06T09:33:35.358Z,1.10
2018-08-06T09:36:05.738Z,1.10
2018-08-06T09:38:35.961Z,1.20
2018-08-06T09:41:06.570Z,1.10
2018-08-06T09:43:37.374Z,1.30
2018-08-06T09:46:08.100Z,1.30
2018-08-06T09:48:38.797Z,1.27
2018-08-06T09:51:09.483Z,1.23
2018-08-06T09:53:40.204Z,1.20
2018-08-06T09:56:11.844Z,1.10
2018-08-06T09:58:42.538Z,1.20
2018-08-06T10:01:18.381Z,1.17
2018-08-06T10:03:49.051Z,1.10
2018-08-06T10:06:19.963Z,1.17
2018-08-06T10:08:50.450Z,1.33
2018-08-06T10:11:21.146Z,1.30
2018-08-06T10:13:51.878Z,1.20
2018-08-06T10:16:22.608Z,1.30
2018-08-06T10:18:53.358Z,1.20
2018-08-06T10:21:24.060Z,1.30
2018-08-06T10:23:54.712Z,1.20
2018-08-06T10:26:25.352Z,1.20
2018-08-06T10:28:56.030Z,1.40
2018-08-06T10:31:26.807Z,1.20
2018-08-06T10:33:57.523Z,1.23
2018-08-06T10:36:28.204Z,1.30
2018-08-06T10:38:58.924Z,1.50
2018-08-06T10:41:29.609Z,1.30
2018-08-06T10:44:00.267Z,1.20
2018-08-06T10:46:30.954Z,1.00
2018-08-06T10:49:02.153Z,1.37
2018-08-06T10:51:32.918Z,1.20
2018-08-06T10:54:03.671Z,1.40
2018-08-06T10:56:34.843Z,1.20
2018-08-06T10:59:05.882Z,1.40
2018-08-06T11:01:36.558Z,1.00
2018-08-06T11:04:07.647Z,1.20
2018-08-06T11:06:38.404Z,1.30
2018-08-06T11:09:09.383Z,1.40
2018-08-06T11:11:39.751Z,1.47
2018-08-06T11:14:10.349Z,1.33
2018-08-06T11:16:40.982Z,1.30
2018-08-06T11:19:11.674Z,1.20
2018-08-06T11:21:42.366Z,1.13
2018-08-06T11:24:13.257Z,1.20
2018-08-06T11:26:43.933Z,1.43
2018-08-06T11:29:14.594Z,1.20
2018-08-06T11:31:45.296Z,1.17
2018-08-06T11:34:15.917Z,1.10
2018-08-06T11:36:46.608Z,1.10
2018-08-06T11:39:17.258Z,1.30
2018-08-06T11:41:47.937Z,0.90
2018-08-06T11:44:18.598Z,1.13
2018-08-06T11:46:49.318Z,1.10
2018-08-06T11:49:19.966Z,1.10
2018-08-06T11:51:50.635Z,1.13
2018-08-06T11:54:21.293Z,1.13
2018-08-06T11:56:51.796Z,1.30
2018-08-06T11:59:22.154Z,1.10
2018-08-06T12:01:52.863Z,1.20
2018-08-06T12:04:23.511Z,1.10
2018-08-06T12:06:54.214Z,1.20
2018-08-06T12:09:24.893Z,1.20
2018-08-06T12:11:55.603Z,1.00
2018-08-06T12:14:27.125Z,1.37
2018-08-06T12:16:57.753Z,1.17
2018-08-06T12:19:28.511Z,1.20
2018-08-06T12:21:59.162Z,1.20
2018-08-06T12:24:29.881Z,1.50
2018-08-06T12:27:00.554Z,1.17
2018-08-06T12:29:31.205Z,1.37
2018-08-06T12:32:01.919Z,1.50
2018-08-06T12:34:32.626Z,1.30
2018-08-06T12:37:03.313Z,1.20
2018-08-06T12:39:34.047Z,1.10
2018-08-06T12:42:04.801Z,1.27
2018-08-06T12:44:35.458Z,1.63
2018-08-06T12:47:06.261Z,1.40
2018-08-06T12:49:36.894Z,1.30
2018-08-06T12:52:07.629Z,1.10
2018-08-06T12:54:38.303Z,1.50
2018-08-06T12:57:09.099Z,1.22
2018-08-06T12:59:39.662Z,1.10
2018-08-06T13:02:10.386Z,1.30
2018-08-06T13:04:41.035Z,1.20
2018-08-06T13:07:11.722Z,1.22
2018-08-06T13:09:42.436Z,1.35
2018-08-06T13:12:13.132Z,1.22
2018-08-06T13:14:44.031Z,1.20
2018-08-06T13:17:14.681Z,1.22
2018-08-06T13:19:45.366Z,1.40
2018-08-06T13:22:16.025Z,1.30
2018-08-06T13:24:46.705Z,1.12
2018-08-06T13:27:17.380Z,1.30
2018-08-06T13:29:48.070Z,1.20
2018-08-06T13:32:18.789Z,1.07
2018-08-06T13:34:49.502Z,1.15
2018-08-06T13:37:20.222Z,1.30
2018-08-06T13:39:50.904Z,1.40
2018-08-06T13:42:21.533Z,1.35
2018-08-06T13:44:52.232Z,1.52
2018-08-06T13:47:22.860Z,1.30
2018-08-06T13:49:53.701Z,1.15
2018-08-06T13:52:24.433Z,1.05
2018-08-06T13:54:55.117Z,1.10
2018-08-06T13:57:25.781Z,1.20
2018-08-06T13:59:56.490Z,1.10
2018-08-06T14:02:27.198Z,1.20
2018-08-06T14:04:57.929Z,1.10
2018-08-06T14:07:28.602Z,1.12
2018-08-06T14:09:59.284Z,1.15
2018-08-06T14:12:29.948Z,1.22
2018-08-06T14:15:00.628Z,1.27
2018-08-06T14:17:31.322Z,1.00
2018-08-06T14:20:02.341Z,1.10
2018-08-06T14:22:33.793Z,1.40
2018-08-06T14:25:05.020Z,1.17
2018-08-06T14:27:36.683Z,1.30
2018-08-06T14:30:10.677Z,1.00
2018-08-06T14:32:41.849Z,1.30
2018-08-06T14:35:12.667Z,1.10
2018-08-06T14:37:43.313Z,1.40
2018-08-06T14:40:18.683Z,1.10
2018-08-06T14:42:49.366Z,1.20
2018-08-06T14:45:20.059Z,1.15
2018-08-06T14:47:50.797Z,1.50
2018-08-06T14:50:21.512Z,1.10
2018-08-06T14:52:52.305Z,1.20
2018-08-06T14:55:23.030Z,1.42
2018-08-06T14:57:53.735Z,1.15
2018-08-06T15:00:24.391Z,1.00
2018-08-06T15:02:55.059Z,1.10
2018-08-06T15:05:25.744Z,1.10
2018-08-06T15:07:56.494Z,1.00
2018-08-06T15:10:26.813Z,1.10
2018-08-06T15:12:57.441Z,1.20
2018-08-06T15:15:28.185Z,1.40
2018-08-06T15:17:58.826Z,1.30
2018-08-06T15:20:29.452Z,1.30
2018-08-06T15:23:00.141Z,1.25
2018-08-06T15:25:31.798Z,1.20
2018-08-06T15:28:02.387Z,1.27
2018-08-06T15:30:33.174Z,1.32
2018-08-06T15:33:03.894Z,1.35
2018-08-06T15:35:34.591Z,1.27
2018-08-06T15:38:05.629Z,1.70
2018-08-06T15:41:07.698Z,1.45
2018-08-06T15:43:38.353Z,1.25
2018-08-06T15:46:09.085Z,1.30
2018-08-06T15:48:39.789Z,1.30
2018-08-06T15:51:10.529Z,1.10
2018-08-06T15:53:41.245Z,1.40
2018-08-06T15:56:11.954Z,1.30
2018-08-06T15:58:43.449Z,1.30
2018-08-06T16:01:14.153Z,1.00
2018-08-06T16:03:44.848Z,1.20
2018-08-06T16:06:15.463Z,1.10
2018-08-06T16:08:46.165Z,1.13
2018-08-06T16:11:16.885Z,1.23
2018-08-06T16:13:47.581Z,1.30
2018-08-06T16:16:18.220Z,1.20
2018-08-06T16:18:48.894Z,1.40
2018-08-06T16:21:19.520Z,1.20
2018-08-06T16:23:50.185Z,1.37
2018-08-06T16:26:20.876Z,1.50
2018-08-06T16:28:51.586Z,1.10
2018-08-06T16:31:23.137Z,1.30
2018-08-06T16:33:53.898Z,1.40
2018-08-06T16:36:24.579Z,1.07
2018-08-06T16:38:55.290Z,1.30
2018-08-06T16:41:25.995Z,1.50
2018-08-06T16:43:56.755Z,1.40
2018-08-06T16:46:27.450Z,1.40
2018-08-06T16:48:58.159Z,1.30
2018-08-06T16:51:28.865Z,1.47
2018-08-06T16:53:59.608Z,1.37
2018-08-06T16:56:30.301Z,1.23
2018-08-06T16:59:01.029Z,1.20
2018-08-06T17:01:31.657Z,1.30
2018-08-06T17:04:02.395Z,1.10
2018-08-06T17:06:33.096Z,1.20
2018-08-06T17:09:04.161Z,1.30
2018-08-06T17:11:34.821Z,1.40
2018-08-06T17:14:06.536Z,1.50
2018-08-06T17:16:37.242Z,1.47
2018-08-06T17:19:07.925Z,1.57
2018-08-06T17:21:38.627Z,1.50
2018-08-06T17:24:09.321Z,1.50
2018-08-06T17:26:39.993Z,1.60
2018-08-06T17:29:10.654Z,1.50
2018-08-06T17:31:41.301Z,1.50
2018-08-06T17:34:11.962Z,1.20
2018-08-06T17:36:42.603Z,1.50
2018-08-06T17:39:13.560Z,1.50
2018-08-06T17:41:44.221Z,1.10
2018-08-06T17:44:14.865Z,1.33
2018-08-06T17:46:45.598Z,2.13
2018-08-06T17:49:16.262Z,1.60
2018-08-06T17:51:46.909Z,1.30
2018-08-06T17:54:17.612Z,1.90
2018-08-06T17:56:48.262Z,1.97
2018-08-06T17:59:18.963Z,1.80
2018-08-06T18:01:49.668Z,1.90
2018-08-06T18:04:20.318Z,1.80
2018-08-06T18:06:50.990Z,1.80
2018-08-06T18:09:21.657Z,1.57
2018-08-06T18:11:52.282Z,2.07
2018-08-06T18:14:22.960Z,1.80
2018-08-06T18:16:53.649Z,1.90
2018-08-06T18:19:24.277Z,1.80
2018-08-06T18:21:54.909Z,1.80
2018-08-06T18:24:25.191Z,1.80
2018-08-06T18:26:55.802Z,2.60
2018-08-06T18:29:26.395Z,2.50
2018-08-06T18:31:57.069Z,2.50
2018-08-06T18:34:27.736Z,2.70
2018-08-06T18:36:58.470Z,2.50
2018-08-06T18:39:29.129Z,3.10
2018-08-06T18:41:59.867Z,3.40
2018-08-06T18:44:30.531Z,3.50
2018-08-06T18:47:01.226Z,3.10
2018-08-06T18:49:31.863Z,3.17
2018-08-06T18:52:02.611Z,2.53
2018-08-06T18:54:33.374Z,2.70
2018-08-06T18:57:04.143Z,2.70
2018-08-06T18:59:34.797Z,2.60
2018-08-06T19:02:05.561Z,2.23
2018-08-06T19:04:36.293Z,2.30
2018-08-06T19:07:07.027Z,2.70
2018-08-06T19:09:37.848Z,1.90
2018-08-06T19:12:13.903Z,2.43
2018-08-06T19:14:44.566Z,2.20
2018-08-06T19:17:15.402Z,2.60
2018-08-06T19:19:46.093Z,2.23
2018-08-06T19:22:17.538Z,2.13
2018-08-06T19:24:53.075Z,2.33
2018-08-06T19:27:23.593Z,2.20
2018-08-06T19:29:54.380Z,2.10
2018-08-06T19:32:26.062Z,1.80
2018-08-06T19:34:56.736Z,2.10
2018-08-06T19:37:32.554Z,2.57
2018-08-06T19:40:03.247Z,2.40
2018-08-06T19:42:39.194Z,2.40
2018-08-06T19:45:09.929Z,2.73
2018-08-06T19:47:41.062Z,2.77
2018-08-06T19:50:17.118Z,2.50
2018-08-06T19:52:47.894Z,2.80
2018-08-06T19:55:23.757Z,3.30
2018-08-06T19:57:54.478Z,3.30
2018-08-06T20:00:26.279Z,2.60
2018-08-06T20:02:57.050Z,2.87
2018-08-06T20:05:27.732Z,2.30
2018-08-06T20:07:58.593Z,2.40
2018-08-06T20:10:29.423Z,2.60
2018-08-06T20:13:01.779Z,2.30
2018-08-06T20:15:32.531Z,2.40
2018-08-06T20:18:04.278Z,2.20
2018-08-06T20:20:34.948Z,2.60
2018-08-06T20:23:05.830Z,2.40
2018-08-06T20:25:36.534Z,2.10
2018-08-06T20:28:07.334Z,2.47
2018-08-06T20:30:38.081Z,2.27
2018-08-06T20:33:08.869Z,2.17
2018-08-06T20:35:39.610Z,2.40
2018-08-06T20:38:10.329Z,2.40
2018-08-06T20:40:40.989Z,2.63
2018-08-06T20:43:11.688Z,2.20
2018-08-06T20:45:42.417Z,2.63
2018-08-06T20:48:13.118Z,2.47
2018-08-06T20:50:43.854Z,2.70
2018-08-06T20:53:14.551Z,2.40
2018-08-06T20:55:45.242Z,2.50
2018-08-06T20:58:15.923Z,2.07
2018-08-06T21:00:46.689Z,2.50
2018-08-06T21:03:17.363Z,2.60
2018-08-06T21:05:48.080Z,2.00
2018-08-06T21:08:18.735Z,2.33
2018-08-06T21:10:49.491Z,2.40
2018-08-06T21:13:20.219Z,2.43
2018-08-06T21:15:51.250Z,2.40
2018-08-06T21:18:21.863Z,2.50
2018-08-06T21:20:52.545Z,2.80
2018-08-06T21:23:23.265Z,2.90
2018-08-06T21:25:56.798Z,2.33
2018-08-06T21:28:27.454Z,3.07
2018-08-06T21:30:58.174Z,2.57
2018-08-06T21:33:28.859Z,2.90
2018-08-06T21:35:59.553Z,2.50
2018-08-06T21:38:36.781Z,2.57
2018-08-06T21:41:08.473Z,2.93
2018-08-06T21:43:39.482Z,2.80
2018-08-06T21:46:11.613Z,2.80
2018-08-06T21:48:42.615Z,2.70
2018-08-06T21:51:13.348Z,2.50
2018-08-06T21:53:44.015Z,2.60
2018-08-06T21:56:14.651Z,2.60
2018-08-06T21:58:45.432Z,2.70
2018-08-06T22:01:16.192Z,2.70
2018-08-06T22:03:46.894Z,2.53
2018-08-06T22:06:17.538Z,2.60
2018-08-06T22:08:48.259Z,2.37
2018-08-06T22:11:19.166Z,2.40
2018-08-06T22:13:49.929Z,2.67
2018-08-06T22:16:20.683Z,2.77
2018-08-06T22:18:51.366Z,2.20
2018-08-06T22:21:22.057Z,2.20
2018-08-06T22:23:52.787Z,2.57
2018-08-06T22:26:23.439Z,3.00
2018-08-06T22:28:54.126Z,2.90
2018-08-06T22:31:25.129Z,2.53
2018-08-06T22:33:55.822Z,2.40
2018-08-06T22:36:26.985Z,2.40
2018-08-06T22:38:57.724Z,2.40
2018-08-06T22:41:29.073Z,2.50
2018-08-06T22:43:59.914Z,2.63
2018-08-06T22:46:30.587Z,2.57
2018-08-06T22:49:01.266Z,3.00
2018-08-06T22:51:31.896Z,2.50
2018-08-06T22:54:02.542Z,2.20
2018-08-06T22:56:33.218Z,3.00
2018-08-06T22:59:03.954Z,2.30
2018-08-06T23:01:34.566Z,2.50
2018-08-06T23:04:05.573Z,2.70
2018-08-06T23:06:36.249Z,2.33
2018-08-06T23:09:11.389Z,2.90
2018-08-06T23:11:42.529Z,2.87
2018-08-06T23:14:13.218Z,2.50
2018-08-06T23:16:43.895Z,2.47
2018-08-06T23:19:14.549Z,2.20
2018-08-06T23:21:45.201Z,2.50
2018-08-06T23:24:16.795Z,2.10
2018-08-06T23:26:47.448Z,2.37
2018-08-06T23:29:19.038Z,2.50
2018-08-06T23:31:49.671Z,2.47
2018-08-06T23:34:20.380Z,2.60
2018-08-06T23:36:51.070Z,2.50
2018-08-06T23:39:21.743Z,2.50
2018-08-06T23:41:52.508Z,1.97
2018-08-06T23:44:23.237Z,2.33
2018-08-06T23:46:53.954Z,2.50
2018-08-06T23:49:24.629Z,2.47
2018-08-06T23:51:55.404Z,2.43
2018-08-06T23:54:26.074Z,2.47
2018-08-06T23:56:56.752Z,2.33
2018-08-06T23:59:27.413Z,2.40
